createdAt,value
2019-01-17T00:00:24.691Z,99577.88
2019-01-17T00:03:26.856Z,99569.21
2019-01-17T00:06:05.952Z,99569.21
2019-01-17T00:08:51.633Z,99568.86
2019-01-17T00:11:41.654Z,99568.86
2019-01-17T00:14:33.230Z,99570.23
2019-01-17T00:17:20.540Z,99577.85
2019-01-17T00:20:09.262Z,99576.59
2019-01-17T00:22:56.924Z,99559.41
2019-01-17T00:25:45.921Z,99559.41
2019-01-17T00:28:33.822Z,99579.11
2019-01-17T00:31:13.128Z,99582.17
2019-01-17T00:34:14.427Z,99576.10
2019-01-17T00:37:01.339Z,99578.94
2019-01-17T00:39:37.149Z,99575.26
2019-01-17T00:42:33.847Z,99584.41
2019-01-17T00:45:37.495Z,99577.48
2019-01-17T00:51:29.964Z,99587.14
2019-01-17T00:54:15.818Z,99578.56
2019-01-17T00:57:02.290Z,99578.56
2019-01-17T00:59:48.761Z,99573.95
2019-01-17T01:02:35.109Z,99585.39
2019-01-17T01:05:27.013Z,99576.32
2019-01-17T01:08:23.232Z,99568.36
2019-01-17T01:11:15.059Z,99568.36
2019-01-17T01:13:57.298Z,99564.41
2019-01-17T01:16:51.747Z,99570.33
2019-01-17T01:19:58.425Z,99567.23
2019-01-17T01:22:46.199Z,99561.22
2019-01-17T01:25:38.133Z,99561.22
2019-01-17T01:28:27.455Z,99563.03
2019-01-17T01:31:16.523Z,99563.03
2019-01-17T01:34:03.895Z,99586.57
2019-01-17T01:36:50.325Z,99580.02
2019-01-17T01:39:31.528Z,99580.02
2019-01-17T01:42:13.247Z,99584.45
2019-01-17T01:44:54.224Z,99586.67
2019-01-17T01:47:39.666Z,99583.25
2019-01-17T01:50:41.690Z,99589.73
2019-01-17T01:53:08.923Z,99583.25
2019-01-17T01:55:36.136Z,99583.25
2019-01-17T01:58:03.503Z,99585.87
2019-01-17T02:00:30.713Z,99572.92
2019-01-17T02:02:57.954Z,99572.92
2019-01-17T02:05:25.151Z,99569.89
2019-01-17T02:07:52.368Z,99564.59
2019-01-17T02:10:19.634Z,99564.59
2019-01-17T02:12:46.823Z,99570.05
2019-01-17T02:15:14.033Z,99570.05
2019-01-17T02:17:41.270Z,99566.38
2019-01-17T02:20:08.581Z,99572.34
2019-01-17T02:22:35.763Z,99588.77
2019-01-17T02:25:03.557Z,99588.77
2019-01-17T02:27:30.767Z,99594.81
2019-01-17T02:29:57.978Z,99596.95
2019-01-17T02:32:25.151Z,99589.02
2019-01-17T02:34:52.397Z,99600.16
2019-01-17T02:37:19.555Z,99588.48
2019-01-17T02:39:46.738Z,99588.48
2019-01-17T02:42:13.973Z,99604.41
2019-01-17T02:44:41.174Z,99596.23
2019-01-17T02:47:09.026Z,99594.69
2019-01-17T02:49:36.217Z,99602.54
2019-01-17T02:52:03.409Z,99586.36
2019-01-17T02:54:35.679Z,99591.41
2019-01-17T02:56:59.663Z,99589.27
2019-01-17T02:59:26.984Z,99582.24
2019-01-17T03:01:54.184Z,99583.75
2019-01-17T03:04:21.387Z,99584.58
2019-01-17T03:06:48.740Z,99584.58
2019-01-17T03:09:15.934Z,99587.72
2019-01-17T03:11:43.142Z,99602.39
2019-01-17T03:14:10.500Z,99602.39
2019-01-17T03:16:37.679Z,99597.11
2019-01-17T03:19:04.875Z,99596.30
2019-01-17T03:21:32.089Z,99592.91
2019-01-17T03:23:59.270Z,99596.83
2019-01-17T03:26:26.523Z,99586.75
2019-01-17T03:28:53.699Z,99586.75
2019-01-17T03:31:20.979Z,99586.47
2019-01-17T03:33:48.175Z,99586.47
2019-01-17T03:36:15.332Z,99576.11
2019-01-17T03:38:42.578Z,99572.58
2019-01-17T03:41:09.737Z,99573.77
2019-01-17T03:43:36.920Z,99571.63
2019-01-17T03:46:04.151Z,99578.62
2019-01-17T03:48:31.530Z,99570.48
2019-01-17T03:50:58.771Z,99570.48
2019-01-17T03:53:25.978Z,99582.48
2019-01-17T03:55:53.589Z,99582.48
2019-01-17T03:58:20.817Z,99578.91
2019-01-17T04:00:48.139Z,99578.91
2019-01-17T04:03:15.400Z,99594.69
2019-01-17T04:05:42.578Z,99592.93
2019-01-17T04:08:09.779Z,99591.02
2019-01-17T04:10:36.982Z,99587.25
2019-01-17T04:13:04.307Z,99587.25
2019-01-17T04:15:31.584Z,99592.48
2019-01-17T04:17:58.773Z,99583.75
2019-01-17T04:20:26.117Z,99578.03
2019-01-17T04:22:53.287Z,99585.88
2019-01-17T04:25:20.490Z,99585.88
2019-01-17T04:27:47.709Z,99573.72
2019-01-17T04:30:16.859Z,99570.44
2019-01-17T04:32:44.017Z,99570.44
2019-01-17T04:35:11.279Z,99573.38
2019-01-17T04:37:38.472Z,99578.62
2019-01-17T04:40:06.552Z,99578.62
2019-01-17T04:42:33.789Z,99574.92
2019-01-17T04:45:01.007Z,99567.85
2019-01-17T04:47:28.226Z,99570.66
2019-01-17T04:49:55.441Z,99571.49
2019-01-17T04:52:22.568Z,99575.26
2019-01-17T04:54:49.794Z,99573.19
2019-01-17T04:57:17.014Z,99573.81
2019-01-17T04:59:44.219Z,99578.16
2019-01-17T05:02:11.463Z,99578.16
2019-01-17T05:04:38.868Z,99563.88
2019-01-17T05:07:06.124Z,99577.04
2019-01-17T05:09:33.325Z,99577.85
2019-01-17T05:12:00.522Z,99581.84
2019-01-17T05:14:27.727Z,99581.84
2019-01-17T05:16:54.922Z,99568.47
2019-01-17T05:19:22.128Z,99578.49
2019-01-17T05:21:49.336Z,99578.49
2019-01-17T05:24:16.554Z,99577.41
2019-01-17T05:26:43.740Z,99575.23
2019-01-17T05:29:11.052Z,99575.23
2019-01-17T05:31:38.274Z,99585.93
2019-01-17T05:34:05.458Z,99577.55
2019-01-17T05:36:32.679Z,99577.16
2019-01-17T05:38:59.848Z,99577.16
2019-01-17T05:41:27.099Z,99574.01
2019-01-17T05:43:54.360Z,99572.31
2019-01-17T05:46:21.609Z,99578.62
2019-01-17T05:48:48.957Z,99578.62
2019-01-17T05:51:16.120Z,99572.95
2019-01-17T05:53:43.364Z,99578.08
2019-01-17T05:56:10.589Z,99573.82
2019-01-17T05:58:37.917Z,99572.67
2019-01-17T06:01:05.098Z,99572.67
2019-01-17T06:03:32.406Z,99573.06
2019-01-17T06:05:59.715Z,99581.14
2019-01-17T06:08:26.985Z,99581.14
2019-01-17T06:10:54.185Z,99569.39
2019-01-17T06:13:21.403Z,99569.39
2019-01-17T06:15:48.889Z,99573.64
2019-01-17T06:18:16.089Z,99573.64
2019-01-17T06:20:43.291Z,99575.73
2019-01-17T06:23:10.505Z,99568.95
2019-01-17T06:25:37.678Z,99565.95
2019-01-17T06:28:04.920Z,99565.95
2019-01-17T06:30:32.107Z,99559.38
2019-01-17T06:32:59.345Z,99560.59
2019-01-17T06:35:26.552Z,99553.38
2019-01-17T06:37:53.737Z,99564.52
2019-01-17T06:40:24.095Z,99564.52
2019-01-17T06:42:51.311Z,99550.97
2019-01-17T06:45:18.507Z,99550.97
2019-01-17T06:47:45.949Z,99557.35
2019-01-17T06:50:13.263Z,99554.97
2019-01-17T06:52:41.186Z,99565.63
2019-01-17T06:55:08.569Z,99565.63
2019-01-17T06:57:35.971Z,99561.50
2019-01-17T07:00:03.874Z,99567.52
2019-01-17T07:02:31.076Z,99567.52
2019-01-17T07:04:58.290Z,99568.77
2019-01-17T07:07:25.547Z,99585.39
2019-01-17T07:09:55.220Z,99569.46
2019-01-17T07:12:22.584Z,99569.46
2019-01-17T07:14:49.824Z,99584.01
2019-01-17T07:17:17.171Z,99582.44
2019-01-17T07:19:44.386Z,99576.50
2019-01-17T07:22:11.591Z,99576.50
2019-01-17T07:24:38.937Z,99585.27
2019-01-17T07:27:06.112Z,99580.61
2019-01-17T07:29:33.344Z,99577.02
2019-01-17T07:32:00.587Z,99572.81
2019-01-17T07:34:27.795Z,99572.81
2019-01-17T07:36:55.461Z,99594.34
2019-01-17T07:39:23.584Z,99594.34
2019-01-17T07:41:50.767Z,99586.55
2019-01-17T07:44:18.012Z,99589.06
2019-01-17T07:46:45.319Z,99581.37
2019-01-17T07:49:12.520Z,99592.02
2019-01-17T07:51:39.815Z,99591.52
2019-01-17T07:54:07.018Z,99591.52
2019-01-17T07:56:34.354Z,99599.37
2019-01-17T07:59:01.507Z,99589.72
2019-01-17T08:01:28.704Z,99591.75
2019-01-17T08:03:55.926Z,99590.39
2019-01-17T08:06:23.249Z,99587.09
2019-01-17T08:08:50.484Z,99600.80
2019-01-17T08:11:17.700Z,99604.83
2019-01-17T08:13:44.908Z,99597.56
2019-01-17T08:16:12.195Z,99596.98
2019-01-17T08:18:39.432Z,99593.50
2019-01-17T08:21:06.680Z,99596.98
2019-01-17T08:23:34.765Z,99592.62
2019-01-17T08:26:02.709Z,99602.27
2019-01-17T08:28:29.895Z,99598.92
2019-01-17T08:30:57.109Z,99606.72
2019-01-17T08:33:24.414Z,99598.63
2019-01-17T08:35:51.655Z,99603.86
2019-01-17T08:38:18.851Z,99605.27
2019-01-17T08:40:46.063Z,99610.30
2019-01-17T08:43:13.337Z,99600.80
2019-01-17T08:45:40.584Z,99600.33
2019-01-17T08:48:07.811Z,99600.33
2019-01-17T08:50:35.037Z,99610.93
2019-01-17T08:53:02.366Z,99605.45
2019-01-17T08:55:29.587Z,99603.42
2019-01-17T08:57:56.835Z,99610.19
2019-01-17T09:00:24.378Z,99610.19
2019-01-17T09:02:51.741Z,99614.45
2019-01-17T09:05:18.900Z,99605.02
2019-01-17T09:07:46.250Z,99606.03
2019-01-17T09:10:16.730Z,99606.03
2019-01-17T09:12:44.873Z,99609.63
2019-01-17T09:15:13.063Z,99620.71
2019-01-17T09:17:40.274Z,99621.55
2019-01-17T09:20:09.993Z,99617.17
2019-01-17T09:22:37.194Z,99623.53
2019-01-17T09:25:05.419Z,99627.87
2019-01-17T09:27:32.626Z,99626.78
2019-01-17T09:29:59.854Z,99626.78
2019-01-17T09:32:27.037Z,99618.72
2019-01-17T09:34:54.225Z,99618.72
2019-01-17T09:37:21.415Z,99623.03
2019-01-17T09:39:48.625Z,99622.69
2019-01-17T09:42:16.237Z,99621.34
2019-01-17T09:44:43.688Z,99607.61
2019-01-17T09:47:10.967Z,99607.61
2019-01-17T09:49:38.187Z,99612.27
2019-01-17T09:52:05.377Z,99608.67
2019-01-17T09:54:32.567Z,99608.67
2019-01-17T09:56:59.761Z,99609.77
2019-01-17T09:59:26.985Z,99612.72
2019-01-17T10:01:54.268Z,99615.45
2019-01-17T10:04:22.114Z,99615.16
2019-01-17T10:06:50.664Z,99611.13
2019-01-17T10:09:17.876Z,99609.77
2019-01-17T10:11:45.083Z,99609.77
2019-01-17T10:14:12.310Z,99611.08
2019-01-17T10:17:03.987Z,99610.59
2019-01-17T10:20:08.919Z,99610.59
2019-01-17T10:23:29.858Z,99602.61
2019-01-17T10:26:42.029Z,99602.61
2019-01-17T10:29:39.068Z,99607.31
2019-01-17T10:32:44.680Z,99604.64
2019-01-17T10:35:43.109Z,99620.29
2019-01-17T10:39:10.306Z,99603.86
2019-01-17T10:42:04.777Z,99616.17
2019-01-17T10:45:32.102Z,99609.29
2019-01-17T10:48:49.387Z,99609.29
2019-01-17T10:51:36.854Z,99624.91
2019-01-17T10:54:37.944Z,99612.56
2019-01-17T10:57:29.729Z,99612.56
2019-01-17T11:00:28.693Z,99623.31
2019-01-17T11:03:44.217Z,99613.15
2019-01-17T11:06:41.325Z,99614.80
2019-01-17T11:09:45.877Z,99609.42
2019-01-17T11:12:39.976Z,99608.59
2019-01-17T11:15:33.172Z,99605.30
2019-01-17T11:18:34.490Z,99607.72
2019-01-17T11:21:43.468Z,99609.42
2019-01-17T11:24:44.974Z,99608.28
2019-01-17T11:27:48.960Z,99605.56
2019-01-17T11:31:04.007Z,99609.36
2019-01-17T11:34:02.650Z,99609.36
2019-01-17T11:37:13.650Z,99608.28
2019-01-17T11:40:12.993Z,99599.41
2019-01-17T11:43:16.370Z,99597.94
2019-01-17T11:45:55.517Z,99589.60
2019-01-17T11:49:06.701Z,99592.75
2019-01-17T11:52:31.233Z,99594.50
2019-01-17T11:55:55.146Z,99600.19
2019-01-17T11:59:06.194Z,99600.19
2019-01-17T12:02:11.778Z,99589.69
2019-01-17T12:04:37.988Z,99597.32
2019-01-17T12:07:07.630Z,99605.95
2019-01-17T12:09:35.634Z,99605.95
2019-01-17T12:12:04.176Z,99609.88
2019-01-17T12:14:32.511Z,99609.88
2019-01-17T12:16:59.841Z,99604.69
2019-01-17T12:19:27.253Z,99605.84
2019-01-17T12:21:54.627Z,99602.80
2019-01-17T12:24:22.046Z,99608.03
2019-01-17T12:26:49.593Z,99614.24
2019-01-17T12:29:16.830Z,99600.83
2019-01-17T12:31:44.039Z,99609.89
2019-01-17T12:34:11.357Z,99609.89
2019-01-17T12:36:38.615Z,99620.59
2019-01-17T12:39:08.068Z,99612.80
2019-01-17T12:41:35.374Z,99617.16
2019-01-17T12:44:02.935Z,99617.16
2019-01-17T12:46:30.172Z,99617.27
2019-01-17T12:48:57.661Z,99612.13
2019-01-17T12:51:24.990Z,99615.91
2019-01-17T12:53:52.240Z,99615.91
2019-01-17T12:56:19.819Z,99622.11
2019-01-17T12:58:47.068Z,99617.36
2019-01-17T13:01:14.281Z,99623.03
2019-01-17T13:03:41.490Z,99617.74
2019-01-17T13:06:08.754Z,99618.72
2019-01-17T13:08:35.925Z,99624.44
2019-01-17T13:11:03.425Z,99620.36
2019-01-17T13:13:30.642Z,99620.36
2019-01-17T13:15:57.810Z,99618.19
2019-01-17T13:18:25.048Z,99614.65
2019-01-17T13:20:52.221Z,99617.22
2019-01-17T13:23:19.394Z,99609.89
2019-01-17T13:25:46.626Z,99609.89
2019-01-17T13:28:13.782Z,99620.64
2019-01-17T13:30:41.042Z,99614.94
2019-01-17T13:33:08.948Z,99618.81
2019-01-17T13:35:36.170Z,99626.83
2019-01-17T13:38:03.462Z,99631.20
2019-01-17T13:40:30.695Z,99631.20
2019-01-17T13:42:57.876Z,99631.20
2019-01-17T13:45:25.273Z,99637.89
2019-01-17T13:47:52.469Z,99637.89
2019-01-17T13:50:19.776Z,99638.61
2019-01-17T13:52:47.041Z,99642.54
2019-01-17T13:55:14.714Z,99646.80
2019-01-17T13:57:42.024Z,99644.96
2019-01-17T14:00:17.694Z,99647.92
2019-01-17T14:02:44.947Z,99653.30
2019-01-17T14:05:12.407Z,99653.79
2019-01-17T14:07:39.625Z,99651.75
2019-01-17T14:10:07.351Z,99655.68
2019-01-17T14:12:34.523Z,99654.37
2019-01-17T14:15:01.731Z,99665.23
2019-01-17T14:17:29.260Z,99654.03
2019-01-17T14:19:56.574Z,99657.43
2019-01-17T14:22:23.765Z,99664.31
2019-01-17T14:24:50.996Z,99664.06
2019-01-17T14:27:18.173Z,99671.38
2019-01-17T14:29:45.418Z,99675.36
2019-01-17T14:32:12.619Z,99674.05
2019-01-17T14:34:39.803Z,99679.77
2019-01-17T14:37:07.038Z,99680.94
2019-01-17T14:39:34.258Z,99679.13
2019-01-17T14:42:01.502Z,99682.63
2019-01-17T14:44:28.700Z,99696.25
2019-01-17T14:46:56.088Z,99701.04
2019-01-17T14:49:23.255Z,99702.79
2019-01-17T14:51:50.426Z,99710.64
2019-01-17T14:54:17.633Z,99714.18
2019-01-17T14:56:44.819Z,99723.00
2019-01-17T14:59:12.013Z,99727.95
2019-01-17T15:01:39.560Z,99728.96
2019-01-17T15:04:06.799Z,99730.66
2019-01-17T15:06:34.011Z,99739.48
2019-01-17T15:09:01.238Z,99741.19
2019-01-17T15:11:28.411Z,99734.25
2019-01-17T15:13:55.619Z,99741.23
2019-01-17T15:16:22.824Z,99747.04
2019-01-17T15:18:50.005Z,99742.20
2019-01-17T15:21:17.207Z,99753.58
2019-01-17T15:23:44.397Z,99754.98
2019-01-17T15:26:11.597Z,99749.27
2019-01-17T15:28:38.805Z,99760.17
2019-01-17T15:31:06.042Z,99758.42
2019-01-17T15:33:33.216Z,99763.27
2019-01-17T15:36:00.407Z,99765.45
2019-01-17T15:38:27.652Z,99774.27
2019-01-17T15:40:54.848Z,99774.27
2019-01-17T15:43:22.059Z,99777.80
2019-01-17T15:45:49.333Z,99789.63
2019-01-17T15:48:16.533Z,99777.16
2019-01-17T15:50:43.738Z,99794.86
2019-01-17T15:53:10.962Z,99794.86
2019-01-17T15:55:38.180Z,99788.84
2019-01-17T15:58:05.513Z,99799.25
2019-01-17T16:00:32.818Z,99797.17
2019-01-17T16:03:00.078Z,99797.47
2019-01-17T16:05:27.257Z,99798.34
2019-01-17T16:07:54.616Z,99814.44
2019-01-17T16:10:21.871Z,99819.32
2019-01-17T16:12:49.040Z,99819.32
2019-01-17T16:15:21.273Z,99821.37
2019-01-17T16:17:48.616Z,99821.94
2019-01-17T16:20:15.836Z,99825.91
2019-01-17T16:22:43.026Z,99821.11
2019-01-17T16:25:11.312Z,99825.52
2019-01-17T16:27:41.784Z,99836.03
2019-01-17T16:30:11.799Z,99833.02
2019-01-17T16:32:39.005Z,99831.38
2019-01-17T16:35:06.213Z,99831.38
2019-01-17T16:37:33.440Z,99832.09
2019-01-17T16:40:00.639Z,99832.09
2019-01-17T16:42:27.852Z,99836.55
2019-01-17T16:44:55.079Z,99847.63
2019-01-17T16:47:22.313Z,99863.67
2019-01-17T16:49:49.528Z,99864.37
2019-01-17T16:52:16.772Z,99875.23
2019-01-17T16:54:43.968Z,99883.09
2019-01-17T16:57:11.425Z,99877.85
2019-01-17T16:59:38.573Z,99877.85
2019-01-17T17:02:05.766Z,99888.41
2019-01-17T17:04:32.989Z,99897.77
2019-01-17T17:07:00.261Z,99891.96
2019-01-17T17:09:27.452Z,99891.96
2019-01-17T17:11:54.698Z,99909.83
2019-01-17T17:14:21.891Z,99904.69
2019-01-17T17:16:49.047Z,99909.48
2019-01-17T17:19:16.292Z,99913.36
2019-01-17T17:21:43.494Z,99914.75
2019-01-17T17:24:10.758Z,99914.75
2019-01-17T17:26:37.950Z,99914.83
2019-01-17T17:29:05.182Z,99914.83
2019-01-17T17:31:32.399Z,99910.36
2019-01-17T17:33:59.597Z,99905.28
2019-01-17T17:36:26.811Z,99887.42
2019-01-17T17:38:53.982Z,99887.42
2019-01-17T17:41:21.189Z,99883.54
2019-01-17T17:43:48.378Z,99888.29
2019-01-17T17:46:15.880Z,99907.50
2019-01-17T17:48:43.263Z,99907.50
2019-01-17T17:51:10.454Z,99919.16
2019-01-17T17:53:38.220Z,99939.08
2019-01-17T17:56:05.958Z,99939.08
2019-01-17T17:58:33.194Z,99943.52
2019-01-17T18:01:12.929Z,99947.03
2019-01-17T18:03:40.148Z,99961.86
2019-01-17T18:06:07.471Z,99970.22
2019-01-17T18:08:34.711Z,99966.34
2019-01-17T18:11:02.000Z,99957.98
2019-01-17T18:13:29.172Z,99957.98
2019-01-17T18:15:56.482Z,99971.41
2019-01-17T18:18:23.672Z,99984.36
2019-01-17T18:20:51.013Z,99992.09
2019-01-17T18:23:18.207Z,99995.22
2019-01-17T18:25:45.562Z,100000.00
2019-01-17T18:28:12.816Z,100009.52
2019-01-17T18:30:40.109Z,100023.90
2019-01-17T18:33:07.779Z,100023.43
2019-01-17T18:35:34.997Z,100023.43
2019-01-17T18:38:02.371Z,100033.02
2019-01-17T18:40:29.705Z,100035.47
2019-01-17T18:43:00.305Z,100031.99
2019-01-17T18:45:27.600Z,100033.62
2019-01-17T18:47:54.844Z,100035.75
2019-01-17T18:50:24.499Z,100035.75
2019-01-17T18:52:51.717Z,100041.11
2019-01-17T18:55:18.903Z,100042.88
2019-01-17T18:57:46.107Z,100052.48
2019-01-17T19:00:20.885Z,100044.95
2019-01-17T19:02:48.314Z,100051.45
2019-01-17T19:05:17.296Z,100050.50
2019-01-17T19:07:44.553Z,100054.02
2019-01-17T19:10:11.866Z,100058.86
2019-01-17T19:12:39.073Z,100068.41
2019-01-17T19:15:08.391Z,100074.59
2019-01-17T19:17:35.593Z,100074.23
2019-01-17T19:20:03.726Z,100074.23
2019-01-17T19:22:30.934Z,100078.98
2019-01-17T19:24:58.318Z,100083.11
2019-01-17T19:27:25.539Z,100089.66
2019-01-17T19:29:52.831Z,100090.97
2019-01-17T19:32:20.142Z,100102.22
2019-01-17T19:34:47.322Z,100110.58
2019-01-17T19:37:22.024Z,100110.58
2019-01-17T19:39:49.117Z,100178.92
2019-01-17T19:42:16.497Z,100178.92
2019-01-17T19:44:43.793Z,100200.69
2019-01-17T19:47:11.372Z,100213.77
2019-01-17T19:49:40.640Z,100227.73
2019-01-17T19:52:09.593Z,100236.73
2019-01-17T19:54:41.646Z,100248.03
2019-01-17T19:57:27.696Z,100257.56
2019-01-17T19:59:54.858Z,100288.05
2019-01-17T20:02:22.079Z,100288.05
2019-01-17T20:04:49.307Z,100300.81
2019-01-17T20:07:16.526Z,100312.05
2019-01-17T20:09:43.743Z,100324.66
2019-01-17T20:12:10.938Z,100332.51
2019-01-17T20:14:38.112Z,100342.58
2019-01-17T20:17:05.425Z,100350.28
2019-01-17T20:19:32.647Z,100365.66
2019-01-17T20:21:59.808Z,100365.66
2019-01-17T20:24:27.039Z,100367.97
2019-01-17T20:26:54.244Z,100405.70
2019-01-17T20:29:21.476Z,100414.46
2019-01-17T20:31:48.697Z,100415.86
2019-01-17T20:34:15.895Z,100415.86
2019-01-17T20:36:50.091Z,100442.80
2019-01-17T20:39:32.839Z,100442.80
2019-01-17T20:42:00.036Z,100461.80
2019-01-17T20:44:27.220Z,100490.52
2019-01-17T20:46:54.518Z,100494.47
2019-01-17T20:49:24.776Z,100494.47
2019-01-17T20:51:52.029Z,100494.97
2019-01-17T20:54:20.095Z,100505.40
2019-01-17T20:56:48.044Z,100530.75
2019-01-17T20:59:15.308Z,100530.75
2019-01-17T21:01:52.632Z,100542.52
2019-01-17T21:04:20.290Z,100562.55
2019-01-17T21:06:47.570Z,100565.71
2019-01-17T21:09:15.010Z,100565.71
2019-01-17T21:11:42.409Z,100573.50
2019-01-17T21:14:09.836Z,100576.63
2019-01-17T21:16:38.745Z,100587.80
2019-01-17T21:19:06.066Z,100593.03
2019-01-17T21:21:34.168Z,100595.67
2019-01-17T21:24:01.346Z,100605.30
2019-01-17T21:26:28.633Z,100617.88
2019-01-17T21:28:56.146Z,100617.53
2019-01-17T21:31:23.431Z,100622.71
2019-01-17T21:33:51.838Z,100633.22
2019-01-17T21:36:19.370Z,100635.44
2019-01-17T21:38:46.585Z,100647.20
2019-01-17T21:41:14.022Z,100662.52
2019-01-17T21:43:44.632Z,100669.93
2019-01-17T21:46:11.949Z,100682.11
2019-01-17T21:48:39.432Z,100679.93
2019-01-17T21:51:08.200Z,100679.93
2019-01-17T21:53:37.359Z,100692.06
2019-01-17T21:56:06.230Z,100707.84
2019-01-17T21:58:33.701Z,100707.84
2019-01-17T22:01:01.999Z,100719.09
2019-01-17T22:03:29.664Z,100736.94
2019-01-17T22:05:58.208Z,100739.68
2019-01-17T22:08:25.439Z,100749.78
2019-01-17T22:10:53.188Z,100749.78
2019-01-17T22:13:20.667Z,100754.09
2019-01-17T22:15:48.209Z,100773.69
2019-01-17T22:18:16.014Z,100772.41
2019-01-17T22:20:45.010Z,100769.89
2019-01-17T22:23:14.105Z,100785.05
2019-01-17T22:25:53.892Z,100804.73
2019-01-17T22:28:26.083Z,100804.73
2019-01-17T22:30:55.218Z,100808.66
2019-01-17T22:33:25.332Z,100811.78
2019-01-17T22:35:53.027Z,100816.59
2019-01-17T22:38:21.906Z,100826.67
2019-01-17T22:40:50.239Z,100826.67
2019-01-17T22:43:20.417Z,100828.39
2019-01-17T22:45:49.695Z,100845.34
2019-01-17T22:48:17.625Z,100843.33
2019-01-17T22:50:45.326Z,100843.33
2019-01-17T22:53:13.896Z,100857.59
2019-01-17T22:55:41.175Z,100857.59
2019-01-17T22:58:08.780Z,100857.20
2019-01-17T23:00:58.760Z,100861.98
2019-01-17T23:03:32.950Z,100861.98
2019-01-17T23:06:00.529Z,100876.39
2019-01-17T23:08:28.114Z,100882.45
2019-01-17T23:10:55.748Z,100883.42
2019-01-17T23:13:23.305Z,100888.59
2019-01-17T23:15:51.090Z,100888.59
2019-01-17T23:18:19.606Z,100890.81
2019-01-17T23:20:46.802Z,100903.56
2019-01-17T23:23:14.942Z,100903.56
2019-01-17T23:25:42.323Z,100909.64
2019-01-17T23:28:12.496Z,100926.19
2019-01-17T23:30:46.028Z,100926.19
2019-01-17T23:33:13.245Z,100929.66
2019-01-17T23:35:40.527Z,100931.87
2019-01-17T23:38:07.720Z,100937.03
2019-01-17T23:40:34.921Z,100935.66
2019-01-17T23:43:02.184Z,100946.58
2019-01-17T23:45:29.606Z,100946.58
2019-01-17T23:47:56.775Z,100960.48
2019-01-17T23:50:23.961Z,100960.48
2019-01-17T23:52:51.195Z,100964.50
2019-01-17T23:55:18.419Z,100962.80
2019-01-17T23:57:45.637Z,100972.77
